Time,TemperatureF,DewpointF,PressureIn,WindDirection,WindDirectionDegrees,WindSpeedMPH,WindSpeedGustMPH,Humidity,HourlyPrecipIn,Conditions,Clouds,dailyrainin,SoftwareType,DateUTC
2013-06-14 00:00:00,63.7,55.6,29.65,South,173,4.0,4.0,75,0.00,,,0.65,Wunderground v.1.15,2013-06-14 04:00:00,
2013-06-14 00:05:00,63.7,55.6,29.66,SW,216,4.0,9.0,75,0.00,,,0.00,Wunderground v.1.15,2013-06-14 04:05:00,
2013-06-14 00:10:00,63.7,55.6,29.65,West,280,3.0,3.0,75,0.00,,,0.00,Wunderground v.1.15,2013-06-14 04:10:00,
2013-06-14 00:20:00,63.5,55.4,29.66,East,92,2.0,2.0,75,0.00,,,0.00,Wunderground v.1.15,2013-06-14 04:20:00,
2013-06-14 00:30:00,63.4,55.3,29.67,ENE,68,3.0,3.0,75,0.00,,,0.00,Wunderground v.1.15,2013-06-14 04:30:00,
2013-06-14 00:35:00,63.4,55.3,29.67,SSW,201,2.0,4.0,75,0.00,,,0.00,Wunderground v.1.15,2013-06-14 04:35:00,
2013-06-14 00:40:00,63.3,54.9,29.67,WNW,294,3.0,7.0,74,0.00,,,0.00,Wunderground v.1.15,2013-06-14 04:40:00,
2013-06-14 00:50:00,63.3,54.9,29.67,SE,130,4.0,4.0,74,0.00,,,0.00,Wunderground v.1.15,2013-06-14 04:50:00,
2013-06-14 01:00:00,63.1,55.0,29.67,West,278,3.0,3.0,75,0.00,,,0.00,Wunderground v.1.15,2013-06-14 05:00:00,
2013-06-14 01:05:00,62.9,54.9,29.68,NW,321,3.0,3.0,75,0.00,,,0.00,Wunderground v.1.15,2013-06-14 05:05:00,
2013-06-14 01:15:00,62.8,54.8,29.68,NW,308,3.0,8.0,75,0.00,,,0.00,Wunderground v.1.15,2013-06-14 05:15:00,
2013-06-14 01:25:00,62.7,54.3,29.69,ENE,57,3.0,4.0,74,0.00,,,0.00,Wunderground v.1.15,2013-06-14 05:25:00,
2013-06-14 01:35:00,62.6,53.8,29.70,NNW,334,2.0,6.0,73,0.00,,,0.00,Wunderground v.1.15,2013-06-14 05:35:00,
2013-06-14 01:45:00,62.6,53.4,29.70,WSW,245,3.0,5.0,72,0.00,,,0.00,Wunderground v.1.15,2013-06-14 05:45:00,
2013-06-14 01:55:00,62.5,53.7,29.70,NNW,333,3.0,4.0,73,0.00,,,0.00,Wunderground v.1.15,2013-06-14 05:55:00,
2013-06-14 02:00:00,62.3,53.9,29.69,SW,229,3.0,5.0,74,0.00,,,0.00,Wunderground v.1.15,2013-06-14 06:00:00,
2013-06-14 02:05:00,62.2,53.4,29.70,WNW,295,3.0,5.0,73,0.00,,,0.00,Wunderground v.1.15,2013-06-14 06:05:00,
2013-06-14 02:15:00,62.1,53.7,29.70,WSW,251,3.0,3.0,74,0.00,,,0.00,Wunderground v.1.15,2013-06-14 06:15:00,
2013-06-14 02:25:00,61.9,53.9,29.70,West,274,3.0,6.0,75,0.00,,,0.00,Wunderground v.1.15,2013-06-14 06:25:00,
2013-06-14 02:35:00,61.6,53.6,29.70,WNW,293,4.0,4.0,75,0.00,,,0.00,Wunderground v.1.15,2013-06-14 06:35:00,
2013-06-14 02:45:00,61.5,53.5,29.70,SSW,213,3.0,4.0,75,0.00,,,0.00,Wunderground v.1.15,2013-06-14 06:45:00,
2013-06-14 02:55:00,61.3,53.3,29.69,ESE,108,3.0,4.0,75,0.00,,,0.00,Wunderground v.1.15,2013-06-14 06:55:00,
2013-06-14 03:05:00,61.1,53.5,29.70,SSE,164,3.0,3.0,76,0.00,,,0.00,Wunderground v.1.15,2013-06-14 07:05:00,
2013-06-14 03:15:00,60.9,53.3,29.70,WSW,254,3.0,4.0,76,0.00,,,0.00,Wunderground v.1.15,2013-06-14 07:15:00,
2013-06-14 03:25:00,60.7,53.1,29.70,NW,312,2.0,3.0,76,0.00,,,0.00,Wunderground v.1.15,2013-06-14 07:25:00,
2013-06-14 03:35:00,60.3,53.4,29.71,SW,230,2.0,3.0,78,0.00,,,0.00,Wunderground v.1.15,2013-06-14 07:35:00,
2013-06-14 03:45:00,60.2,53.3,29.72,NW,320,2.0,4.0,78,0.00,,,0.00,Wunderground v.1.15,2013-06-14 07:45:00,
2013-06-14 03:55:00,59.9,54.1,29.73,North,4,1.0,1.0,81,0.00,,,0.00,Wunderground v.1.15,2013-06-14 07:55:00,
2013-06-14 04:05:00,59.5,53.3,29.73,South,179,1.0,1.0,80,0.00,,,0.00,Wunderground v.1.15,2013-06-14 08:05:00,
2013-06-14 04:15:00,59.2,53.4,29.74,WNW,287,1.0,2.0,81,0.00,,,0.00,Wunderground v.1.15,2013-06-14 08:15:00,
2013-06-14 04:25:00,58.8,53.0,29.74,East,95,0.0,2.0,81,0.00,,,0.00,Wunderground v.1.15,2013-06-14 08:25:00,
2013-06-14 04:35:00,58.8,52.6,29.74,NNW,345,2.0,2.0,80,0.00,,,0.00,Wunderground v.1.15,2013-06-14 08:35:00,
2013-06-14 04:45:00,58.9,53.4,29.74,WSW,238,1.0,2.0,82,0.00,,,0.00,Wunderground v.1.15,2013-06-14 08:45:00,
2013-06-14 04:55:00,58.7,52.9,29.75,NNW,337,2.0,2.0,81,0.00,,,0.00,Wunderground v.1.15,2013-06-14 08:55:00,
2013-06-14 05:00:00,58.7,53.5,29.75,NNW,337,1.0,1.0,83,0.00,,,0.00,Wunderground v.1.15,2013-06-14 09:00:00,
2013-06-14 05:05:00,58.6,52.8,29.75,NNW,334,1.0,4.0,81,0.00,,,0.00,Wunderground v.1.15,2013-06-14 09:05:00,
2013-06-14 05:15:00,59.0,53.2,29.76,WSW,253,2.0,3.0,81,0.00,,,0.00,Wunderground v.1.15,2013-06-14 09:15:00,
2013-06-14 05:25:00,59.1,52.9,29.76,NW,311,3.0,4.0,80,0.00,,,0.00,Wunderground v.1.15,2013-06-14 09:25:00,
2013-06-14 05:30:00,59.4,52.9,29.76,SW,224,3.0,4.0,79,0.00,,,0.00,Wunderground v.1.15,2013-06-14 09:30:00,
2013-06-14 05:35:00,59.5,53.0,29.76,WSW,253,4.0,8.0,79,0.00,,,0.00,Wunderground v.1.15,2013-06-14 09:35:00,
2013-06-14 05:40:00,59.6,53.1,29.76,WSW,238,3.0,4.0,79,0.00,,,0.00,Wunderground v.1.15,2013-06-14 09:40:00,
2013-06-14 05:50:00,59.5,53.3,29.77,WSW,253,3.0,3.0,80,0.00,,,0.00,Wunderground v.1.15,2013-06-14 09:50:00,
2013-06-14 06:00:00,59.4,52.9,29.77,SSW,212,2.0,4.0,79,0.00,,,0.00,Wunderground v.1.15,2013-06-14 10:00:00,
2013-06-14 06:05:00,59.4,52.9,29.77,West,269,2.0,4.0,79,0.00,,,0.00,Wunderground v.1.15,2013-06-14 10:05:00,
2013-06-14 06:15:00,59.4,52.9,29.78,WSW,250,1.0,2.0,79,0.00,,,0.00,Wunderground v.1.15,2013-06-14 10:15:00,
2013-06-14 06:25:00,59.7,52.8,29.78,South,177,2.0,6.0,78,0.00,,,0.00,Wunderground v.1.15,2013-06-14 10:25:00,
2013-06-14 06:30:00,59.8,53.3,29.78,WNW,285,2.0,5.0,79,0.00,,,0.00,Wunderground v.1.15,2013-06-14 10:30:00,
2013-06-14 06:40:00,59.8,53.3,29.78,NNE,31,2.0,2.0,79,0.00,,,0.00,Wunderground v.1.15,2013-06-14 10:40:00,
2013-06-14 06:50:00,60.0,53.1,29.79,WNW,284,2.0,5.0,78,0.00,,,0.00,Wunderground v.1.15,2013-06-14 10:50:00,
2013-06-14 06:55:00,60.2,53.3,29.79,NNW,340,2.0,5.0,78,0.00,,,0.00,Wunderground v.1.15,2013-06-14 10:55:00,
2013-06-14 07:05:00,60.4,53.5,29.80,WSW,241,1.0,6.0,78,0.00,,,0.00,Wunderground v.1.15,2013-06-14 11:05:00,
2013-06-14 07:15:00,60.6,53.3,29.80,NW,318,2.0,2.0,77,0.00,,,0.00,Wunderground v.1.15,2013-06-14 11:15:00,
2013-06-14 07:25:00,60.6,53.7,29.80,SSE,164,2.0,2.0,78,0.00,,,0.00,Wunderground v.1.15,2013-06-14 11:25:00,
2013-06-14 07:30:00,60.6,54.0,29.81,NW,313,2.0,2.0,79,0.00,,,0.00,Wunderground v.1.15,2013-06-14 11:30:00,
2013-06-14 07:40:00,60.5,53.3,29.81,West,274,2.0,2.0,77,0.00,,,0.00,Wunderground v.1.15,2013-06-14 11:40:00,
2013-06-14 07:50:00,60.7,54.1,29.81,WSW,247,1.0,1.0,79,0.00,,,0.00,Wunderground v.1.15,2013-06-14 11:50:00,
2013-06-14 08:00:00,61.0,54.1,29.81,WSW,253,2.0,2.0,78,0.00,,,0.00,Wunderground v.1.15,2013-06-14 12:00:00,
2013-06-14 08:05:00,61.2,53.9,29.81,West,270,1.0,3.0,77,0.00,,,0.00,Wunderground v.1.15,2013-06-14 12:05:00,
2013-06-14 08:15:00,61.6,54.7,29.82,SE,131,2.0,3.0,78,0.00,,,0.00,Wunderground v.1.15,2013-06-14 12:15:00,
2013-06-14 08:25:00,62.5,54.8,29.82,SSE,148,3.0,4.0,76,0.00,,,0.00,Wunderground v.1.15,2013-06-14 12:25:00,
2013-06-14 08:35:00,63.3,54.9,29.82,West,270,2.0,4.0,74,0.00,,,0.00,Wunderground v.1.15,2013-06-14 12:35:00,
2013-06-14 08:45:00,63.9,54.7,29.83,West,272,3.0,3.0,72,0.00,,,0.00,Wunderground v.1.15,2013-06-14 12:45:00,
2013-06-14 08:55:00,63.8,55.4,29.83,ENE,74,3.0,4.0,74,0.00,,,0.00,Wunderground v.1.15,2013-06-14 12:55:00,
2013-06-14 09:00:00,64.0,55.2,29.83,NE,45,2.0,4.0,73,0.00,,,0.00,Wunderground v.1.15,2013-06-14 13:00:00,
2013-06-14 09:05:00,64.5,55.3,29.83,SW,221,3.0,4.0,72,0.00,,,0.00,Wunderground v.1.15,2013-06-14 13:05:00,
2013-06-14 09:15:00,65.0,55.8,29.83,ENE,66,2.0,3.0,72,0.00,,,0.00,Wunderground v.1.15,2013-06-14 13:15:00,
2013-06-14 09:25:00,65.1,56.2,29.84,NNE,16,1.0,1.0,73,0.00,,,0.00,Wunderground v.1.15,2013-06-14 13:25:00,
2013-06-14 09:30:00,65.0,56.5,29.84,SSE,166,1.0,7.0,74,0.00,,,0.00,Wunderground v.1.15,2013-06-14 13:30:00,
2013-06-14 09:40:00,65.4,55.7,29.84,North,359,2.0,2.0,71,0.00,,,0.00,Wunderground v.1.15,2013-06-14 13:40:00,
2013-06-14 09:50:00,66.4,55.9,29.85,ENE,62,1.0,1.0,69,0.00,,,0.00,Wunderground v.1.15,2013-06-14 13:50:00,
2013-06-14 10:00:00,67.4,56.9,29.85,North,354,2.0,2.0,69,0.00,,,0.00,Wunderground v.1.15,2013-06-14 14:00:00,
2013-06-14 10:05:00,67.7,56.8,29.85,NNW,327,3.0,3.0,68,0.00,,,0.00,Wunderground v.1.15,2013-06-14 14:05:00,
2013-06-14 10:15:00,67.3,56.8,29.86,West,260,3.0,5.0,69,0.00,,,0.00,Wunderground v.1.15,2013-06-14 14:15:00,
2013-06-14 10:25:00,67.3,56.4,29.86,NE,42,3.0,3.0,68,0.00,,,0.00,Wunderground v.1.15,2013-06-14 14:25:00,
2013-06-14 10:35:00,68.1,55.0,29.86,SSW,212,3.0,3.0,63,0.00,,,0.00,Wunderground v.1.15,2013-06-14 14:35:00,
2013-06-14 10:45:00,69.5,57.2,29.86,East,94,2.0,5.0,65,0.00,,,0.00,Wunderground v.1.15,2013-06-14 14:45:00,
2013-06-14 10:55:00,70.0,54.5,29.86,SW,214,3.0,3.0,58,0.00,,,0.00,Wunderground v.1.15,2013-06-14 14:55:00,
2013-06-14 11:05:00,70.6,57.8,29.86,SW,228,3.0,3.0,64,0.00,,,0.00,Wunderground v.1.15,2013-06-14 15:05:00,
2013-06-14 11:15:00,70.6,55.1,29.86,NE,43,3.0,5.0,58,0.00,,,0.00,Wunderground v.1.15,2013-06-14 15:15:00,
2013-06-14 11:25:00,71.9,56.8,29.86,ESE,103,3.0,4.0,59,0.00,,,0.00,Wunderground v.1.15,2013-06-14 15:25:00,
2013-06-14 11:35:00,73.1,57.4,29.87,NW,310,2.0,2.0,58,0.00,,,0.00,Wunderground v.1.15,2013-06-14 15:35:00,
2013-06-14 11:45:00,72.6,56.0,29.87,SW,227,3.0,4.0,56,0.00,,,0.00,Wunderground v.1.15,2013-06-14 15:45:00,
2013-06-14 11:55:00,72.4,59.5,29.87,SSW,208,3.0,4.0,64,0.00,,,0.00,Wunderground v.1.15,2013-06-14 15:55:00,
2013-06-14 12:00:00,73.0,56.9,29.87,WSW,237,3.0,4.0,57,0.00,,,0.00,Wunderground v.1.15,2013-06-14 16:00:00,
2013-06-14 12:05:00,73.1,57.0,29.87,NW,304,3.0,6.0,57,0.00,,,0.00,Wunderground v.1.15,2013-06-14 16:05:00,
2013-06-14 12:15:00,71.3,57.2,29.87,NW,314,2.0,3.0,61,0.00,,,0.00,Wunderground v.1.15,2013-06-14 16:15:00,
2013-06-14 12:25:00,72.3,54.7,29.87,NNW,329,1.0,4.0,54,0.00,,,0.00,Wunderground v.1.15,2013-06-14 16:25:00,
2013-06-14 12:30:00,72.7,58.5,29.87,SSW,208,1.0,1.0,61,0.00,,,0.00,Wunderground v.1.15,2013-06-14 16:30:00,
2013-06-14 12:40:00,72.7,56.1,29.88,North,4,3.0,3.0,56,0.00,,,0.00,Wunderground v.1.15,2013-06-14 16:40:00,
2013-06-14 12:50:00,72.9,57.3,29.87,East,83,3.0,3.0,58,0.00,,,0.00,Wunderground v.1.15,2013-06-14 16:50:00,
2013-06-14 13:00:00,73.1,56.0,29.87,ESE,104,3.0,3.0,55,0.00,,,0.00,Wunderground v.1.15,2013-06-14 17:00:00,
2013-06-14 13:05:00,73.1,58.8,29.87,SSW,199,2.0,3.0,61,0.00,,,0.00,Wunderground v.1.15,2013-06-14 17:05:00,
2013-06-14 13:15:00,74.0,58.8,29.87,SW,228,2.0,2.0,59,0.00,,,0.00,Wunderground v.1.15,2013-06-14 17:15:00,
2013-06-14 13:25:00,75.1,56.8,29.87,WNW,299,2.0,2.0,53,0.00,,,0.00,Wunderground v.1.15,2013-06-14 17:25:00,
2013-06-14 13:30:00,74.9,56.1,29.88,NW,320,3.0,4.0,52,0.00,,,0.00,Wunderground v.1.15,2013-06-14 17:30:00,
2013-06-14 13:40:00,75.1,57.3,29.88,South,172,4.0,4.0,54,0.00,,,0.00,Wunderground v.1.15,2013-06-14 17:40:00,
2013-06-14 13:50:00,75.2,56.9,29.88,South,173,3.0,3.0,53,0.00,,,0.00,Wunderground v.1.15,2013-06-14 17:50:00,
2013-06-14 14:00:00,76.0,58.2,29.88,NW,316,2.0,3.0,54,0.00,,,0.00,Wunderground v.1.15,2013-06-14 18:00:00,
2013-06-14 14:05:00,75.9,55.9,29.88,WNW,289,3.0,4.0,50,0.00,,,0.00,Wunderground v.1.15,2013-06-14 18:05:00,
2013-06-14 14:15:00,77.0,56.9,29.88,North,8,2.0,5.0,50,0.00,,,0.00,Wunderground v.1.15,2013-06-14 18:15:00,
2013-06-14 14:25:00,77.1,55.9,29.87,South,184,3.0,5.0,48,0.00,,,0.00,Wunderground v.1.15,2013-06-14 18:25:00,
2013-06-14 14:30:00,75.8,56.4,29.87,NE,44,2.0,9.0,51,0.00,,,0.00,Wunderground v.1.15,2013-06-14 18:30:00,
2013-06-14 14:40:00,75.6,54.5,29.88,SW,236,5.0,5.0,48,0.00,,,0.00,Wunderground v.1.15,2013-06-14 18:40:00,
2013-06-14 14:50:00,75.9,57.0,29.88,North,350,3.0,3.0,52,0.00,,,0.00,Wunderground v.1.15,2013-06-14 18:50:00,
2013-06-14 14:55:00,76.3,56.3,29.88,NNW,332,2.0,3.0,50,0.00,,,0.00,Wunderground v.1.15,2013-06-14 18:55:00,
2013-06-14 15:05:00,78.1,58.5,29.88,WSW,243,2.0,2.0,51,0.00,,,0.00,Wunderground v.1.15,2013-06-14 19:05:00,
2013-06-14 15:15:00,78.0,54.9,29.88,WSW,244,3.0,5.0,45,0.00,,,0.00,Wunderground v.1.15,2013-06-14 19:15:00,
2013-06-14 15:25:00,78.0,54.9,29.88,ENE,75,3.0,3.0,45,0.00,,,0.00,Wunderground v.1.15,2013-06-14 19:25:00,
2013-06-14 15:35:00,78.6,58.4,29.88,ENE,57,1.0,3.0,50,0.00,,,0.00,Wunderground v.1.15,2013-06-14 19:35:00,
2013-06-14 15:45:00,78.8,57.4,29.87,SE,138,3.0,7.0,48,0.00,,,0.00,Wunderground v.1.15,2013-06-14 19:45:00,
2013-06-14 15:55:00,78.8,55.0,29.87,WSW,243,2.0,3.0,44,0.00,,,0.00,Wunderground v.1.15,2013-06-14 19:55:00,
2013-06-14 16:05:00,78.3,56.4,29.87,SE,125,1.0,2.0,47,0.00,,,0.00,Wunderground v.1.15,2013-06-14 20:05:00,
2013-06-14 16:15:00,78.5,56.0,29.87,SE,125,3.0,6.0,46,0.00,,,0.00,Wunderground v.1.15,2013-06-14 20:15:00,
2013-06-14 16:20:00,78.6,56.7,29.87,NNW,339,4.0,5.0,47,0.00,,,0.00,Wunderground v.1.15,2013-06-14 20:20:00,
2013-06-14 16:30:00,78.8,55.7,29.87,South,185,2.0,2.0,45,0.00,,,0.00,Wunderground v.1.15,2013-06-14 20:30:00,
2013-06-14 16:40:00,78.2,54.5,29.87,East,79,4.0,4.0,44,0.00,,,0.00,Wunderground v.1.15,2013-06-14 20:40:00,
2013-06-14 16:50:00,77.8,56.5,29.87,SE,124,3.0,3.0,48,0.00,,,0.00,Wunderground v.1.15,2013-06-14 20:50:00,
2013-06-14 17:00:00,79.4,56.8,29.87,South,175,2.0,2.0,46,0.00,,,0.00,Wunderground v.1.15,2013-06-14 21:00:00,
2013-06-14 17:05:00,78.9,56.4,29.87,SE,133,2.0,2.0,46,0.00,,,0.00,Wunderground v.1.15,2013-06-14 21:05:00,
2013-06-14 17:15:00,78.7,53.7,29.87,North,354,2.0,2.0,42,0.00,,,0.00,Wunderground v.1.15,2013-06-14 21:15:00,
2013-06-14 17:25:00,77.8,55.4,29.87,NW,324,2.0,3.0,46,0.00,,,0.00,Wunderground v.1.15,2013-06-14 21:25:00,
2013-06-14 17:35:00,78.1,55.0,29.88,WSW,251,3.0,4.0,45,0.00,,,0.00,Wunderground v.1.15,2013-06-14 21:35:00,
2013-06-14 17:45:00,77.1,55.3,29.88,ENE,78,2.0,3.0,47,0.00,,,0.00,Wunderground v.1.15,2013-06-14 21:45:00,
2013-06-14 17:55:00,77.5,55.7,29.88,NNW,347,1.0,2.0,47,0.00,,,0.00,Wunderground v.1.15,2013-06-14 21:55:00,
2013-06-14 18:00:00,76.9,56.3,29.88,WNW,287,2.0,2.0,49,0.00,,,0.00,Wunderground v.1.15,2013-06-14 22:00:00,
2013-06-14 18:05:00,76.1,56.1,29.88,West,260,2.0,5.0,50,0.00,,,0.00,Wunderground v.1.15,2013-06-14 22:05:00,
2013-06-14 18:15:00,75.4,56.0,29.89,SSW,207,3.0,5.0,51,0.00,,,0.00,Wunderground v.1.15,2013-06-14 22:15:00,
2013-06-14 18:20:00,75.2,55.8,29.89,North,359,2.0,2.0,51,0.00,,,0.00,Wunderground v.1.15,2013-06-14 22:20:00,
2013-06-14 18:30:00,75.0,55.1,29.89,North,4,2.0,2.0,50,0.00,,,0.00,Wunderground v.1.15,2013-06-14 22:30:00,
2013-06-14 18:35:00,74.2,54.4,29.88,WSW,251,3.0,3.0,50,0.00,,,0.00,Wunderground v.1.15,2013-06-14 22:35:00,
2013-06-14 18:45:00,73.2,56.6,29.88,SW,230,1.0,3.0,56,0.00,,,0.00,Wunderground v.1.15,2013-06-14 22:45:00,
2013-06-14 18:55:00,72.2,54.6,29.89,North,10,1.0,4.0,54,0.00,,,0.00,Wunderground v.1.15,2013-06-14 22:55:00,
2013-06-14 19:05:00,71.9,54.3,29.89,ENE,75,2.0,6.0,54,0.00,,,0.00,Wunderground v.1.15,2013-06-14 23:05:00,
2013-06-14 19:15:00,71.4,54.9,29.90,SSE,148,1.0,1.0,56,0.00,,,0.00,Wunderground v.1.15,2013-06-14 23:15:00,
2013-06-14 19:20:00,71.2,56.1,29.89,SE,133,1.0,1.0,59,0.00,,,0.00,Wunderground v.1.15,2013-06-14 23:20:00,
2013-06-14 19:30:00,70.6,54.1,29.90,West,262,1.0,1.0,56,0.00,,,0.00,Wunderground v.1.15,2013-06-14 23:30:00,
2013-06-14 19:40:00,70.1,55.1,29.90,WNW,297,1.0,1.0,59,0.00,,,0.00,Wunderground v.1.15,2013-06-14 23:40:00,
2013-06-14 19:50:00,69.5,55.5,29.90,West,276,1.0,1.0,61,0.00,,,0.00,Wunderground v.1.15,2013-06-14 23:50:00,
2013-06-14 19:55:00,69.2,57.4,29.90,West,276,1.0,1.0,66,0.00,,,0.00,Wunderground v.1.15,2013-06-14 23:55:00,
2013-06-14 20:05:00,68.0,54.9,29.90,SW,236,2.0,7.0,63,0.00,,,0.00,Wunderground v.1.15,2013-06-15 00:05:00,
2013-06-14 20:15:00,68.3,54.8,29.91,SSW,204,4.0,6.0,62,0.00,,,0.00,Wunderground v.1.15,2013-06-15 00:15:00,
2013-06-14 20:25:00,68.1,55.0,29.91,WSW,252,3.0,4.0,63,0.00,,,0.00,Wunderground v.1.15,2013-06-15 00:25:00,
2013-06-14 20:30:00,67.8,55.6,29.92,SW,215,1.0,1.0,65,0.00,,,0.00,Wunderground v.1.15,2013-06-15 00:30:00,
2013-06-14 20:40:00,67.2,55.0,29.92,SW,217,2.0,2.0,65,0.00,,,0.00,Wunderground v.1.15,2013-06-15 00:40:00,
2013-06-14 20:50:00,66.9,55.6,29.92,SW,228,1.0,1.0,67,0.00,,,0.00,Wunderground v.1.15,2013-06-15 00:50:00,
2013-06-14 20:55:00,66.7,55.8,29.93,SW,228,0.0,1.0,68,0.00,,,0.00,Wunderground v.1.15,2013-06-15 00:55:00,
2013-06-14 21:05:00,65.8,54.9,29.93,NNE,14,1.0,1.0,68,0.00,,,0.00,Wunderground v.1.15,2013-06-15 01:05:00,
2013-06-14 21:15:00,65.2,55.2,29.93,West,269,1.0,1.0,70,0.00,,,0.00,Wunderground v.1.15,2013-06-15 01:15:00,
2013-06-14 21:25:00,64.9,54.5,29.94,WSW,255,1.0,1.0,69,0.00,,,0.00,Wunderground v.1.15,2013-06-15 01:25:00,
2013-06-14 21:35:00,64.7,55.5,29.94,WSW,245,1.0,1.0,72,0.00,,,0.00,Wunderground v.1.15,2013-06-15 01:35:00,
2013-06-14 21:45:00,64.3,54.7,29.94,North,354,1.0,2.0,71,0.00,,,0.00,Wunderground v.1.15,2013-06-15 01:45:00,
2013-06-14 21:55:00,64.1,54.5,29.94,South,184,0.0,1.0,71,0.00,,,0.00,Wunderground v.1.15,2013-06-15 01:55:00,
2013-06-14 22:05:00,64.2,55.0,29.94,WSW,257,1.0,2.0,72,0.00,,,0.00,Wunderground v.1.15,2013-06-15 02:05:00,
2013-06-14 22:15:00,64.1,54.5,29.95,WNW,297,1.0,1.0,71,0.00,,,0.00,Wunderground v.1.15,2013-06-15 02:15:00,
2013-06-14 22:20:00,64.2,55.0,29.95,WSW,256,1.0,1.0,72,0.00,,,0.00,Wunderground v.1.15,2013-06-15 02:20:00,
2013-06-14 22:30:00,63.9,54.3,29.96,NNW,343,1.0,1.0,71,0.00,,,0.00,Wunderground v.1.15,2013-06-15 02:30:00,
2013-06-14 22:40:00,63.9,54.7,29.96,NW,312,1.0,1.0,72,0.00,,,0.00,Wunderground v.1.15,2013-06-15 02:40:00,
2013-06-14 22:50:00,63.5,54.3,29.96,NW,312,1.0,1.0,72,0.00,,,0.00,Wunderground v.1.15,2013-06-15 02:50:00,
2013-06-14 23:00:00,63.1,54.7,29.96,NW,312,0.0,0.0,74,0.00,,,0.00,Wunderground v.1.15,2013-06-15 03:00:00,
2013-06-14 23:05:00,62.9,54.1,29.96,North,10,0.0,1.0,73,0.00,,,0.00,Wunderground v.1.15,2013-06-15 03:05:00,
2013-06-14 23:15:00,62.7,54.3,29.97,North,10,0.0,0.0,74,0.00,,,0.00,Wunderground v.1.15,2013-06-15 03:15:00,
2013-06-14 23:25:00,62.2,54.5,29.97,West,268,0.0,2.0,76,0.00,,,0.00,Wunderground v.1.15,2013-06-15 03:25:00,
2013-06-14 23:30:00,62.0,54.7,29.97,West,267,1.0,1.0,77,0.00,,,0.00,Wunderground v.1.15,2013-06-15 03:30:00,
2013-06-14 23:40:00,61.6,54.7,29.97,West,276,0.0,0.0,78,0.00,,,0.00,Wunderground v.1.15,2013-06-15 03:40:00,
2013-06-14 23:50:00,61.4,54.1,29.98,NW,313,1.0,1.0,77,0.00,,,0.00,Wunderground v.1.15,2013-06-15 03:50:00,
2013-06-14 23:55:00,61.3,54.7,29.98,NW,313,0.0,1.0,79,0.00,,,0.00,Wunderground v.1.15,2013-06-15 03:55:00,